createdAt,value
2019-05-10T00:01:57.182Z,90.30
2019-05-10T00:04:44.216Z,90.02
2019-05-10T00:07:31.386Z,90.42
2019-05-10T00:09:59.882Z,90.96
2019-05-10T00:12:46.017Z,90.90
2019-05-10T00:15:17.094Z,91.18
2019-05-10T00:17:46.774Z,91.08
2019-05-10T00:20:16.213Z,90.55
2019-05-10T00:22:45.666Z,90.51
2019-05-10T00:25:15.141Z,90.51
2019-05-10T00:27:44.609Z,90.53
2019-05-10T00:30:14.209Z,90.37
2019-05-10T00:32:43.701Z,90.08
2019-05-10T00:35:13.168Z,89.03
2019-05-10T00:37:42.624Z,88.28
2019-05-10T00:40:12.158Z,88.72
2019-05-10T00:42:41.636Z,89.08
2019-05-10T00:45:11.588Z,89.23
2019-05-10T00:47:41.085Z,89.36
2019-05-10T00:50:12.263Z,89.87
2019-05-10T00:52:41.785Z,89.89
2019-05-10T00:55:18.802Z,89.65
2019-05-10T00:57:42.469Z,89.42
2019-05-10T01:00:12.467Z,89.09
2019-05-10T01:02:41.973Z,89.39
2019-05-10T01:05:11.579Z,89.10
2019-05-10T01:07:41.052Z,89.36
2019-05-10T01:10:11.333Z,89.45
2019-05-10T01:12:40.890Z,89.68
2019-05-10T01:15:11.650Z,89.98
2019-05-10T01:17:41.171Z,90.17
2019-05-10T01:20:10.833Z,90.36
2019-05-10T01:22:40.336Z,90.18
2019-05-10T01:25:10.041Z,90.60
2019-05-10T01:27:39.502Z,90.52
2019-05-10T01:30:09.659Z,90.25
2019-05-10T01:32:39.204Z,90.08
2019-05-10T01:35:08.685Z,90.28
2019-05-10T01:37:38.153Z,89.91
2019-05-10T01:40:07.818Z,90.20
2019-05-10T01:42:37.369Z,90.55
2019-05-10T01:45:08.384Z,90.33
2019-05-10T01:47:37.870Z,90.48
2019-05-10T01:50:07.485Z,90.52
2019-05-10T01:52:37.006Z,90.63
2019-05-10T01:55:06.538Z,90.72
2019-05-10T01:57:36.028Z,90.63
2019-05-10T02:00:07.559Z,90.38
2019-05-10T02:02:37.118Z,90.50
2019-05-10T02:05:07.129Z,90.75
2019-05-10T02:07:36.657Z,91.00
2019-05-10T02:10:06.680Z,91.03
2019-05-10T02:12:36.228Z,91.02
2019-05-10T02:15:05.903Z,91.21
2019-05-10T02:17:35.367Z,91.43
2019-05-10T02:20:05.396Z,91.45
2019-05-10T02:22:34.964Z,91.44
2019-05-10T02:25:04.973Z,91.51
2019-05-10T02:27:34.483Z,91.27
2019-05-10T02:30:04.720Z,91.50
2019-05-10T02:32:34.266Z,91.50
2019-05-10T02:35:03.744Z,91.25
2019-05-10T02:37:33.204Z,91.58
2019-05-10T02:40:02.672Z,91.19
2019-05-10T02:42:32.208Z,91.15
2019-05-10T02:45:01.669Z,91.15
2019-05-10T02:47:31.265Z,91.66
2019-05-10T02:50:00.951Z,91.74
2019-05-10T02:52:30.749Z,91.86
2019-05-10T02:55:01.211Z,92.00
2019-05-10T02:57:31.006Z,91.71
2019-05-10T03:00:01.705Z,91.16
2019-05-10T03:02:32.084Z,90.76
2019-05-10T03:05:03.056Z,90.86
2019-05-10T03:07:36.285Z,91.04
2019-05-10T03:10:08.452Z,91.37
2019-05-10T03:12:41.640Z,91.70
2019-05-10T03:15:12.558Z,91.67
2019-05-10T03:17:42.516Z,91.82
2019-05-10T03:20:12.946Z,92.17
2019-05-10T03:22:44.579Z,92.42
2019-05-10T03:25:14.650Z,92.34
2019-05-10T03:27:44.335Z,92.22
2019-05-10T03:30:14.146Z,92.52
2019-05-10T03:32:43.734Z,92.55
2019-05-10T03:35:13.502Z,92.75
2019-05-10T03:37:44.526Z,93.11
2019-05-10T03:40:14.119Z,93.39
2019-05-10T03:42:43.845Z,93.29
2019-05-10T03:45:13.529Z,93.22
2019-05-10T03:47:43.032Z,93.22
2019-05-10T03:50:12.796Z,93.21
2019-05-10T03:52:42.312Z,93.17
2019-05-10T03:55:11.885Z,93.31
2019-05-10T03:57:41.435Z,93.29
2019-05-10T04:00:11.332Z,92.63
2019-05-10T04:02:40.831Z,92.22
2019-05-10T04:05:11.737Z,92.06
2019-05-10T04:07:41.346Z,91.77
2019-05-10T04:10:10.897Z,90.71
2019-05-10T04:12:40.464Z,89.60
2019-05-10T04:15:10.936Z,88.25
2019-05-10T04:17:40.459Z,87.90
2019-05-10T04:20:10.635Z,87.50
2019-05-10T04:22:40.165Z,87.25
2019-05-10T04:25:09.934Z,86.62
2019-05-10T04:27:39.478Z,85.94
2019-05-10T04:30:10.473Z,85.28
2019-05-10T04:32:40.013Z,85.72
2019-05-10T04:35:10.088Z,85.69
2019-05-10T04:37:39.695Z,85.31
2019-05-10T04:40:10.018Z,84.54
2019-05-10T04:42:39.567Z,83.08
2019-05-10T04:45:09.347Z,83.20
2019-05-10T04:47:38.855Z,82.94
2019-05-10T04:50:08.512Z,83.88
2019-05-10T04:52:38.068Z,85.43
2019-05-10T04:55:07.678Z,87.11
2019-05-10T04:57:49.780Z,88.17
2019-05-10T05:00:09.359Z,87.21
2019-05-10T05:02:38.916Z,88.13
2019-05-10T05:05:09.011Z,86.97
2019-05-10T05:07:38.495Z,87.52
2019-05-10T05:10:08.147Z,88.26
2019-05-10T05:12:37.616Z,89.86
2019-05-10T05:15:07.402Z,91.19
2019-05-10T05:17:36.924Z,90.84
2019-05-10T05:20:06.643Z,91.36
2019-05-10T05:22:36.185Z,91.27
2019-05-10T05:25:05.642Z,91.19
2019-05-10T05:27:35.253Z,91.38
2019-05-10T05:30:05.170Z,91.09
2019-05-10T05:32:38.690Z,91.04
2019-05-10T05:35:06.305Z,91.21
2019-05-10T05:37:35.839Z,91.54
2019-05-10T05:40:06.008Z,91.65
2019-05-10T05:42:35.527Z,89.90
2019-05-10T05:45:05.211Z,89.28
2019-05-10T05:47:37.542Z,87.33
2019-05-10T05:50:06.207Z,86.03
2019-05-10T05:52:35.739Z,86.23
2019-05-10T05:55:05.858Z,84.53
2019-05-10T05:57:35.331Z,85.13
2019-05-10T06:00:06.748Z,83.84
2019-05-10T06:02:44.246Z,83.63
2019-05-10T06:05:07.748Z,83.99
2019-05-10T06:07:38.471Z,85.19
2019-05-10T06:10:10.285Z,85.24
2019-05-10T06:12:44.651Z,85.94
2019-05-10T06:15:11.082Z,84.95
2019-05-10T06:17:40.570Z,84.48
2019-05-10T06:20:10.493Z,83.49
2019-05-10T06:22:44.016Z,80.76
2019-05-10T06:25:11.207Z,79.23
2019-05-10T06:27:43.035Z,80.42
2019-05-10T06:30:12.666Z,79.67
2019-05-10T06:32:42.147Z,80.51
2019-05-10T06:35:14.016Z,79.99
2019-05-10T06:37:44.020Z,79.10
2019-05-10T06:40:13.724Z,78.99
2019-05-10T06:42:43.191Z,77.27
2019-05-10T06:45:15.793Z,76.21
2019-05-10T06:47:47.933Z,76.27
2019-05-10T06:50:15.791Z,77.81
2019-05-10T06:52:45.275Z,77.33
2019-05-10T06:55:15.270Z,76.52
2019-05-10T06:57:50.565Z,76.13
2019-05-10T07:00:16.034Z,75.88
2019-05-10T07:02:45.527Z,76.09
2019-05-10T07:05:15.079Z,76.45
2019-05-10T07:07:45.520Z,76.14
2019-05-10T07:10:19.215Z,76.63
2019-05-10T07:12:46.701Z,76.51
2019-05-10T07:15:16.445Z,76.73
2019-05-10T07:17:47.361Z,75.88
2019-05-10T07:20:17.195Z,75.22
2019-05-10T07:22:46.701Z,74.58
2019-05-10T07:25:16.243Z,73.81
2019-05-10T07:27:45.727Z,72.10
2019-05-10T07:30:18.118Z,71.29
2019-05-10T07:32:47.582Z,70.55
2019-05-10T07:35:17.120Z,71.17
2019-05-10T07:37:47.629Z,70.06
2019-05-10T07:40:17.785Z,68.69
2019-05-10T07:42:47.282Z,69.45
2019-05-10T07:45:18.705Z,67.64
2019-05-10T07:47:48.071Z,67.68
2019-05-10T07:50:17.558Z,68.35
2019-05-10T07:52:47.019Z,68.90
2019-05-10T07:55:18.564Z,69.31
2019-05-10T07:57:47.694Z,69.37
2019-05-10T08:00:17.715Z,69.06
2019-05-10T08:02:52.699Z,70.53
2019-05-10T08:05:18.603Z,71.27
2019-05-10T08:07:49.489Z,71.93
2019-05-10T08:10:21.458Z,72.11
2019-05-10T08:12:50.356Z,72.24
2019-05-10T08:15:24.871Z,71.81
2019-05-10T08:17:51.185Z,70.94
2019-05-10T08:20:38.234Z,69.92
2019-05-10T08:22:52.530Z,69.76
2019-05-10T08:25:23.035Z,69.15
2019-05-10T08:27:55.295Z,68.96
2019-05-10T08:30:42.578Z,68.88
2019-05-10T08:33:13.973Z,65.53
2019-05-10T08:35:45.850Z,63.04
2019-05-10T08:38:13.060Z,63.86
2019-05-10T08:40:43.042Z,64.30
2019-05-10T08:43:16.103Z,65.13
2019-05-10T08:45:49.250Z,65.41
2019-05-10T08:48:15.513Z,64.13
2019-05-10T08:50:53.484Z,63.90
2019-05-10T08:53:16.760Z,63.53
2019-05-10T08:55:49.435Z,63.59
2019-05-10T09:01:20.421Z,61.98
2019-05-10T09:03:37.536Z,62.21
2019-05-10T09:06:11.805Z,62.49
2019-05-10T09:08:38.204Z,62.87
2019-05-10T09:11:07.688Z,62.78
2019-05-10T09:13:41.192Z,60.66
2019-05-10T09:16:08.379Z,61.58
2019-05-10T09:18:42.684Z,60.70
2019-05-10T09:21:10.686Z,60.93
2019-05-10T09:23:42.487Z,61.80
2019-05-10T09:26:16.229Z,61.23
2019-05-10T09:28:42.682Z,61.21
2019-05-10T09:31:22.803Z,60.22
2019-05-10T09:33:49.788Z,60.03
2019-05-10T09:36:14.623Z,60.10
2019-05-10T09:38:46.320Z,59.56
2019-05-10T09:41:15.290Z,59.13
2019-05-10T09:43:49.172Z,58.92
2019-05-10T09:46:16.155Z,56.71
2019-05-10T09:48:45.643Z,56.11
2019-05-10T09:51:19.008Z,56.50
2019-05-10T09:53:48.529Z,56.96
2019-05-10T09:56:17.593Z,57.48
2019-05-10T09:58:48.358Z,57.15
2019-05-10T10:01:21.602Z,57.72
2019-05-10T10:03:49.221Z,58.04
2019-05-10T10:06:18.711Z,58.54
2019-05-10T10:08:51.345Z,58.92
2019-05-10T10:11:19.366Z,58.64
2019-05-10T10:13:57.026Z,57.99
2019-05-10T10:16:20.273Z,57.56
2019-05-10T10:18:49.825Z,56.91
2019-05-10T10:21:30.658Z,57.30
2019-05-10T10:23:50.491Z,58.20
2019-05-10T10:26:22.326Z,59.28
2019-05-10T10:28:55.187Z,60.22
2019-05-10T10:31:29.671Z,60.49
2019-05-10T10:33:58.010Z,59.02
2019-05-10T10:36:27.256Z,58.23
2019-05-10T10:38:56.203Z,57.17
2019-05-10T10:41:30.928Z,57.17
2019-05-10T10:43:58.315Z,57.17
2019-05-10T10:46:28.283Z,56.86
2019-05-10T10:48:57.818Z,56.73
2019-05-10T10:51:32.065Z,57.23
2019-05-10T10:53:58.479Z,58.15
2019-05-10T10:56:27.973Z,58.13
2019-05-10T10:58:58.036Z,58.18
2019-05-10T11:01:37.828Z,57.32
2019-05-10T11:04:03.685Z,58.27
2019-05-10T11:06:30.554Z,58.76
2019-05-10T11:09:01.730Z,59.52
2019-05-10T11:11:38.914Z,59.99
2019-05-10T11:14:07.375Z,60.48
2019-05-10T11:16:33.903Z,61.12
2019-05-10T11:19:09.172Z,62.18
2019-05-10T11:21:34.643Z,61.66
2019-05-10T11:24:04.158Z,61.05
2019-05-10T11:26:36.760Z,60.75
2019-05-10T11:29:04.922Z,62.75
2019-05-10T11:31:34.428Z,62.67
2019-05-10T11:34:06.047Z,61.41
2019-05-10T11:36:35.302Z,62.01
2019-05-10T11:39:06.366Z,60.99
2019-05-10T11:41:35.924Z,58.47
2019-05-10T11:44:08.931Z,59.31
2019-05-10T11:46:36.686Z,58.47
2019-05-10T11:49:06.158Z,59.24
2019-05-10T11:51:35.681Z,57.63
2019-05-10T11:54:05.287Z,57.29
2019-05-10T11:56:34.802Z,57.47
2019-05-10T11:59:05.434Z,56.40
2019-05-10T12:01:35.566Z,55.81
2019-05-10T12:04:05.324Z,53.24
2019-05-10T12:06:41.131Z,53.43
2019-05-10T12:09:08.039Z,54.42
2019-05-10T12:11:43.735Z,53.76
2019-05-10T12:14:13.590Z,53.51
2019-05-10T12:16:42.083Z,52.92
2019-05-10T12:19:19.878Z,51.40
2019-05-10T12:21:42.575Z,51.91
2019-05-10T12:24:31.244Z,51.85
2019-05-10T12:29:17.129Z,52.71
2019-05-10T12:31:47.476Z,51.74
2019-05-10T12:34:17.071Z,51.59
2019-05-10T12:36:46.529Z,51.52
2019-05-10T12:39:16.226Z,51.71
2019-05-10T12:41:49.671Z,50.93
2019-05-10T12:44:17.063Z,50.25
2019-05-10T12:46:46.563Z,49.94
2019-05-10T12:49:16.026Z,49.39
2019-05-10T12:51:45.532Z,50.38
2019-05-10T12:54:18.465Z,50.61
2019-05-10T12:56:46.331Z,50.28
2019-05-10T12:59:15.825Z,50.37
2019-05-10T13:01:45.312Z,50.50
2019-05-10T13:04:16.949Z,48.76
2019-05-10T13:06:46.037Z,48.88
2019-05-10T13:09:15.581Z,49.90
2019-05-10T13:11:45.082Z,51.00
2019-05-10T13:14:14.544Z,51.99
2019-05-10T13:16:44.227Z,51.24
2019-05-10T13:19:19.993Z,50.08
2019-05-10T13:21:45.341Z,49.93
2019-05-10T13:24:14.818Z,50.23
2019-05-10T13:26:44.303Z,50.68
2019-05-10T13:29:13.793Z,51.54
2019-05-10T13:31:44.402Z,51.96
2019-05-10T13:34:16.369Z,51.27
2019-05-10T13:36:45.907Z,50.89
2019-05-10T13:39:19.032Z,49.72
2019-05-10T13:41:46.629Z,49.24
2019-05-10T13:44:16.102Z,47.88
2019-05-10T13:46:45.582Z,48.68
2019-05-10T13:49:15.036Z,50.51
2019-05-10T13:51:46.014Z,50.20
2019-05-10T13:54:15.502Z,48.52
2019-05-10T13:56:51.675Z,48.98
2019-05-10T13:59:18.013Z,48.73
2019-05-10T14:01:49.681Z,49.55
2019-05-10T14:04:18.676Z,50.71
2019-05-10T14:06:48.258Z,50.62
2019-05-10T14:09:20.802Z,51.21
2019-05-10T14:11:49.022Z,51.24
2019-05-10T14:14:20.402Z,51.28
2019-05-10T14:16:49.766Z,51.80
2019-05-10T14:19:22.831Z,52.39
2019-05-10T14:21:50.521Z,51.11
2019-05-10T14:24:19.981Z,51.10
2019-05-10T14:26:51.465Z,51.69
2019-05-10T14:29:33.304Z,50.99
2019-05-10T14:31:52.444Z,51.12
2019-05-10T14:34:21.984Z,50.05
2019-05-10T14:36:51.518Z,49.90
2019-05-10T14:39:21.035Z,48.37
2019-05-10T14:41:51.423Z,48.74
2019-05-10T14:44:21.932Z,49.01
2019-05-10T14:46:51.470Z,47.84
2019-05-10T14:49:20.937Z,47.60
2019-05-10T14:51:59.058Z,46.35
2019-05-10T14:54:21.965Z,46.28
2019-05-10T14:56:53.948Z,46.91
2019-05-10T14:59:22.684Z,47.64
2019-05-10T15:01:52.195Z,48.08
2019-05-10T15:04:43.906Z,48.72
2019-05-10T15:06:52.947Z,48.88
2019-05-10T15:09:24.182Z,49.32
2019-05-10T15:11:53.969Z,49.74
2019-05-10T15:14:23.557Z,50.06
2019-05-10T15:16:53.099Z,50.25
2019-05-10T15:19:26.305Z,49.62
2019-05-10T15:21:53.842Z,50.30
2019-05-10T15:24:23.646Z,50.34
2019-05-10T15:26:53.201Z,50.39
2019-05-10T15:29:24.662Z,50.76
2019-05-10T15:31:53.893Z,50.09
2019-05-10T15:34:23.379Z,50.15
2019-05-10T15:36:53.055Z,49.30
2019-05-10T15:39:22.966Z,49.62
2019-05-10T15:41:59.072Z,49.98
2019-05-10T15:44:31.055Z,50.17
2019-05-10T15:46:56.698Z,49.34
2019-05-10T15:49:26.191Z,49.59
2019-05-10T15:52:15.182Z,49.03
2019-05-10T15:54:26.979Z,48.43
2019-05-10T15:56:56.643Z,48.09
2019-05-10T15:59:26.151Z,49.11
2019-05-10T16:01:55.665Z,49.39
2019-05-10T16:04:25.219Z,49.89
2019-05-10T16:06:54.793Z,50.14
2019-05-10T16:09:25.810Z,50.36
2019-05-10T16:11:55.966Z,50.40
2019-05-10T16:14:26.679Z,50.62
2019-05-10T16:16:56.200Z,50.01
2019-05-10T16:19:25.812Z,50.24
2019-05-10T16:21:58.018Z,50.32
2019-05-10T16:24:28.087Z,50.57
2019-05-10T16:27:00.097Z,50.85
2019-05-10T16:29:33.665Z,51.15
2019-05-10T16:32:00.146Z,51.30
2019-05-10T16:34:32.360Z,51.40
2019-05-10T16:37:01.020Z,51.85
2019-05-10T16:39:30.480Z,51.98
2019-05-10T16:42:00.031Z,52.52
2019-05-10T16:44:29.573Z,52.86
2019-05-10T16:46:59.137Z,53.79
2019-05-10T16:49:28.689Z,53.67
2019-05-10T16:51:58.188Z,53.78
2019-05-10T16:54:27.679Z,54.02
2019-05-10T16:57:01.467Z,54.45
2019-05-10T16:59:29.624Z,54.57
2019-05-10T17:02:04.346Z,54.47
2019-05-10T17:04:32.203Z,53.96
2019-05-10T17:07:02.150Z,54.13
2019-05-10T17:09:31.627Z,54.57
2019-05-10T17:12:01.141Z,54.15
2019-05-10T17:14:30.625Z,54.39
2019-05-10T17:17:00.248Z,54.77
2019-05-10T17:19:34.151Z,54.46
2019-05-10T17:22:00.993Z,54.74
2019-05-10T17:24:30.549Z,54.40
2019-05-10T17:27:00.059Z,55.00
2019-05-10T17:29:29.533Z,54.58
2019-05-10T17:31:59.009Z,54.59
2019-05-10T17:34:29.722Z,54.56
2019-05-10T17:36:59.775Z,54.78
2019-05-10T17:39:32.021Z,54.63
2019-05-10T17:42:03.220Z,54.22
2019-05-10T17:44:31.853Z,54.45
2019-05-10T17:47:01.412Z,54.46
2019-05-10T17:49:30.958Z,54.89
2019-05-10T17:52:00.464Z,55.06
2019-05-10T17:54:33.658Z,55.34
2019-05-10T17:57:01.094Z,55.67
2019-05-10T17:59:30.616Z,55.98
2019-05-10T18:02:00.134Z,56.36
2019-05-10T18:04:29.659Z,55.90
2019-05-10T18:06:59.172Z,55.65
2019-05-10T18:09:28.726Z,55.28
2019-05-10T18:11:58.252Z,55.49
2019-05-10T18:14:29.610Z,55.36
2019-05-10T18:16:59.036Z,55.07
2019-05-10T18:19:28.515Z,55.79
2019-05-10T18:22:00.736Z,55.45
2019-05-10T18:24:30.258Z,55.52
2019-05-10T18:27:00.569Z,55.72
2019-05-10T18:29:30.069Z,56.30
2019-05-10T18:31:59.546Z,55.96
2019-05-10T18:34:35.257Z,55.94
2019-05-10T18:37:00.735Z,55.81
2019-05-10T18:39:30.258Z,55.77
2019-05-10T18:41:59.705Z,56.53
2019-05-10T18:44:29.269Z,56.14
2019-05-10T18:46:58.748Z,55.98
2019-05-10T18:49:28.367Z,55.48
2019-05-10T18:52:04.247Z,55.58
2019-05-10T18:54:29.177Z,55.54
2019-05-10T18:57:04.781Z,55.89
2019-05-10T18:59:29.891Z,56.14
2019-05-10T19:01:59.393Z,56.16
2019-05-10T19:04:28.950Z,56.05
2019-05-10T19:07:09.334Z,56.41
2019-05-10T19:09:29.749Z,56.70
2019-05-10T19:11:59.525Z,56.62
2019-05-10T19:14:29.999Z,56.68
2019-05-10T19:17:03.898Z,56.84
2019-05-10T19:19:35.119Z,57.29
2019-05-10T19:22:08.691Z,57.13
2019-05-10T19:24:34.321Z,57.28
2019-05-10T19:27:07.462Z,57.25
2019-05-10T19:29:38.917Z,57.35
2019-05-10T19:32:11.457Z,57.70
2019-05-10T19:34:37.654Z,57.53
2019-05-10T19:37:07.179Z,57.96
2019-05-10T19:39:36.863Z,57.42
2019-05-10T19:42:06.435Z,56.98
2019-05-10T19:44:40.362Z,56.84
2019-05-10T19:47:11.166Z,56.91
2019-05-10T19:49:38.489Z,56.95
2019-05-10T19:52:07.958Z,57.04
2019-05-10T19:54:37.465Z,57.28
2019-05-10T19:57:15.358Z,57.04
2019-05-10T19:59:38.256Z,57.16
2019-05-10T20:02:07.790Z,57.35
2019-05-10T20:04:37.317Z,58.29
2019-05-10T20:07:06.933Z,58.81
2019-05-10T20:09:36.535Z,59.19
2019-05-10T20:12:06.014Z,59.11
2019-05-10T20:14:35.858Z,59.36
2019-05-10T20:17:05.488Z,60.36
2019-05-10T20:19:34.949Z,59.80
2019-05-10T20:22:04.470Z,59.54
2019-05-10T20:24:34.021Z,60.02
2019-05-10T20:27:03.915Z,60.43
2019-05-10T20:29:33.391Z,60.81
2019-05-10T20:32:02.960Z,61.10
2019-05-10T20:34:32.429Z,61.02
2019-05-10T20:37:01.950Z,60.99
2019-05-10T20:39:31.433Z,60.37
2019-05-10T20:42:00.934Z,61.14
2019-05-10T20:44:30.479Z,61.26
2019-05-10T20:46:59.988Z,61.14
2019-05-10T20:49:29.477Z,61.12
2019-05-10T20:51:59.282Z,61.28
2019-05-10T20:54:28.812Z,60.93
2019-05-10T20:56:58.418Z,60.45
2019-05-10T20:59:27.910Z,60.56
2019-05-10T21:01:57.374Z,60.24
2019-05-10T21:04:26.840Z,59.98
2019-05-10T21:06:56.314Z,60.12
2019-05-10T21:09:25.826Z,59.88
2019-05-10T21:11:55.369Z,60.14
2019-05-10T21:14:24.868Z,60.41
2019-05-10T21:16:54.361Z,60.07
2019-05-10T21:19:23.846Z,59.94
2019-05-10T21:21:53.363Z,60.22
2019-05-10T21:24:23.069Z,60.00
2019-05-10T21:26:52.559Z,60.22
2019-05-10T21:29:22.041Z,60.33
2019-05-10T21:31:51.578Z,60.87
2019-05-10T21:34:21.080Z,60.97
2019-05-10T21:36:50.602Z,61.28
2019-05-10T21:39:20.145Z,61.17
2019-05-10T21:41:49.702Z,61.34
2019-05-10T21:44:19.229Z,61.61
2019-05-10T21:46:48.846Z,61.83
2019-05-10T21:49:18.362Z,62.04
2019-05-10T21:51:47.813Z,62.31
2019-05-10T21:54:17.338Z,62.69
2019-05-10T21:56:46.879Z,62.63
2019-05-10T21:59:16.454Z,62.84
2019-05-10T22:01:45.974Z,63.44
2019-05-10T22:04:15.532Z,63.32
2019-05-10T22:06:45.020Z,63.37
2019-05-10T22:09:14.585Z,63.39
2019-05-10T22:11:44.091Z,63.48
2019-05-10T22:14:13.588Z,63.37
2019-05-10T22:16:43.101Z,63.85
2019-05-10T22:19:12.656Z,63.70
2019-05-10T22:21:42.120Z,64.38
2019-05-10T22:24:12.035Z,64.19
2019-05-10T22:26:41.527Z,64.43
2019-05-10T22:29:11.031Z,64.41
2019-05-10T22:31:40.578Z,64.30
2019-05-10T22:34:10.063Z,64.72
2019-05-10T22:36:39.611Z,64.40
2019-05-10T22:39:09.178Z,64.72
2019-05-10T22:41:38.661Z,64.77
2019-05-10T22:44:08.207Z,64.76
2019-05-10T22:46:37.711Z,64.44
2019-05-10T22:49:07.281Z,64.31
2019-05-10T22:51:36.804Z,64.10
2019-05-10T22:54:06.399Z,64.38
2019-05-10T22:56:35.900Z,64.19
2019-05-10T22:59:05.474Z,64.17
2019-05-10T23:01:34.992Z,63.57
2019-05-10T23:04:04.657Z,63.84
2019-05-10T23:06:34.154Z,63.40
2019-05-10T23:09:04.385Z,63.58
2019-05-10T23:11:33.889Z,63.78
2019-05-10T23:14:03.417Z,63.65
2019-05-10T23:16:32.985Z,63.54
2019-05-10T23:19:02.545Z,63.56
2019-05-10T23:21:32.036Z,63.30
2019-05-10T23:24:06.633Z,63.28
2019-05-10T23:26:47.368Z,63.27
2019-05-10T23:29:16.905Z,62.80
2019-05-10T23:31:46.360Z,62.90
2019-05-10T23:34:16.069Z,62.76
2019-05-10T23:36:45.797Z,62.90
2019-05-10T23:39:15.526Z,62.90
2019-05-10T23:41:45.316Z,62.84
2019-05-10T23:44:15.013Z,63.07
2019-05-10T23:46:44.762Z,63.17
2019-05-10T23:49:14.450Z,63.26
2019-05-10T23:51:44.274Z,63.34
2019-05-10T23:54:14.033Z,63.19
2019-05-10T23:56:43.793Z,63.24
2019-05-10T23:59:13.473Z,63.26
